sensor_id;sensor_type;location;lat;lon;timestamp;pressure;altitude;pressure_sealevel;temperature;humidity
29941;BME280;16801;53.562;10.038;2023-03-26T00:01:17;100118.06;;;8.10;89.95
29941;BME280;16801;53.562;10.038;2023-03-26T00:04:39;100130.22;;;8.11;89.41
29941;BME280;16801;53.562;10.038;2023-03-26T00:08:01;100124.03;;;7.96;89.86
29941;BME280;16801;53.562;10.038;2023-03-26T00:11:24;100131.25;;;8.02;88.84
29941;BME280;16801;53.562;10.038;2023-03-26T00:14:46;100154.88;;;8.10;88.94
29941;BME280;16801;53.562;10.038;2023-03-26T00:18:08;100153.56;;;8.06;89.32
29941;BME280;16801;53.562;10.038;2023-03-26T00:21:29;100158.34;;;8.02;89.39
29941;BME280;16801;53.562;10.038;2023-03-26T00:24:50;100161.13;;;8.01;89.84
29941;BME280;16801;53.562;10.038;2023-03-26T00:28:11;100170.81;;;8.00;90.00
29941;BME280;16801;53.562;10.038;2023-03-26T00:31:35;100169.19;;;7.91;90.77
29941;BME280;16801;53.562;10.038;2023-03-26T00:34:59;100171.81;;;7.99;89.86
29941;BME280;16801;53.562;10.038;2023-03-26T00:38:21;100178.56;;;7.94;90.49
29941;BME280;16801;53.562;10.038;2023-03-26T00:41:42;100162.44;;;7.97;89.46
29941;BME280;16801;53.562;10.038;2023-03-26T00:45:04;100173.34;;;7.85;90.26
29941;BME280;16801;53.562;10.038;2023-03-26T00:48:25;100179.69;;;7.91;89.48
29941;BME280;16801;53.562;10.038;2023-03-26T00:51:49;100179.09;;;7.81;90.20
29941;BME280;16801;53.562;10.038;2023-03-26T00:55:11;100187.78;;;7.89;90.04
29941;BME280;16801;53.562;10.038;2023-03-26T00:58:32;100182.69;;;7.80;91.15
29941;BME280;16801;53.562;10.038;2023-03-26T01:01:54;100190.22;;;7.91;90.70
29941;BME280;16801;53.562;10.038;2023-03-26T01:05:46;100195.13;;;7.94;90.13
29941;BME280;16801;53.562;10.038;2023-03-26T01:09:14;100196.47;;;7.90;89.20
29941;BME280;16801;53.562;10.038;2023-03-26T01:12:37;100203.53;;;7.89;90.41
29941;BME280;16801;53.562;10.038;2023-03-26T01:15:59;100201.25;;;7.86;90.88
29941;BME280;16801;53.562;10.038;2023-03-26T01:19:26;100203.56;;;7.65;90.21
29941;BME280;16801;53.562;10.038;2023-03-26T01:22:51;100224.72;;;7.72;89.72
29941;BME280;16801;53.562;10.038;2023-03-26T01:26:26;100247.56;;;7.79;88.49
29941;BME280;16801;53.562;10.038;2023-03-26T01:29:53;100229.16;;;7.71;87.81
29941;BME280;16801;53.562;10.038;2023-03-26T01:33:19;100234.56;;;7.70;88.43
29941;BME280;16801;53.562;10.038;2023-03-26T01:36:52;100232.63;;;7.64;87.44
29941;BME280;16801;53.562;10.038;2023-03-26T01:40:20;100225.91;;;7.61;87.29
29941;BME280;16801;53.562;10.038;2023-03-26T01:43:50;100231.78;;;7.55;87.62
29941;BME280;16801;53.562;10.038;2023-03-26T01:47:15;100231.28;;;7.51;87.48
29941;BME280;16801;53.562;10.038;2023-03-26T01:50:37;100244.94;;;7.55;88.02
29941;BME280;16801;53.562;10.038;2023-03-26T01:53:59;100243.59;;;7.51;88.77
29941;BME280;16801;53.562;10.038;2023-03-26T01:57:30;100235.41;;;7.54;88.28
29941;BME280;16801;53.562;10.038;2023-03-26T02:01:00;100238.69;;;7.56;87.74
29941;BME280;16801;53.562;10.038;2023-03-26T02:04:32;100240.81;;;7.52;87.77
29941;BME280;16801;53.562;10.038;2023-03-26T02:07:59;100240.50;;;7.39;88.22
29941;BME280;16801;53.562;10.038;2023-03-26T02:11:23;100249.53;;;7.45;88.29
29941;BME280;16801;53.562;10.038;2023-03-26T02:14:44;100244.59;;;7.50;88.46
29941;BME280;16801;53.562;10.038;2023-03-26T02:18:06;100242.94;;;7.49;87.02
29941;BME280;16801;53.562;10.038;2023-03-26T02:21:29;100246.22;;;7.35;87.58
29941;BME280;16801;53.562;10.038;2023-03-26T02:24:52;100233.91;;;7.35;87.38
29941;BME280;16801;53.562;10.038;2023-03-26T02:28:13;100243.75;;;7.49;86.93
29941;BME280;16801;53.562;10.038;2023-03-26T02:31:35;100240.34;;;7.41;86.41
29941;BME280;16801;53.562;10.038;2023-03-26T02:34:58;100244.59;;;7.42;85.45
29941;BME280;16801;53.562;10.038;2023-03-26T02:38:19;100243.63;;;7.43;85.27
29941;BME280;16801;53.562;10.038;2023-03-26T02:41:43;100248.53;;;7.38;86.63
29941;BME280;16801;53.562;10.038;2023-03-26T02:45:06;100250.00;;;7.32;84.84
29941;BME280;16801;53.562;10.038;2023-03-26T02:48:45;100252.44;;;7.26;85.21
29941;BME280;16801;53.562;10.038;2023-03-26T02:52:14;100249.16;;;7.15;85.73
29941;BME280;16801;53.562;10.038;2023-03-26T02:55:38;100245.22;;;7.28;84.58
29941;BME280;16801;53.562;10.038;2023-03-26T02:58:59;100256.84;;;7.09;85.00
29941;BME280;16801;53.562;10.038;2023-03-26T03:02:20;100255.22;;;7.16;85.09
29941;BME280;16801;53.562;10.038;2023-03-26T03:05:43;100253.22;;;7.10;85.08
29941;BME280;16801;53.562;10.038;2023-03-26T03:09:18;100255.38;;;7.14;84.73
29941;BME280;16801;53.562;10.038;2023-03-26T03:12:58;100247.94;;;7.02;84.58
29941;BME280;16801;53.562;10.038;2023-03-26T03:16:19;100257.97;;;7.06;83.13
29941;BME280;16801;53.562;10.038;2023-03-26T03:19:41;100266.16;;;7.03;83.96
29941;BME280;16801;53.562;10.038;2023-03-26T03:23:02;100261.25;;;7.00;83.94
29941;BME280;16801;53.562;10.038;2023-03-26T03:26:25;100247.78;;;6.95;83.57
29941;BME280;16801;53.562;10.038;2023-03-26T03:29:48;100251.72;;;6.91;83.14
29941;BME280;16801;53.562;10.038;2023-03-26T03:33:28;100252.19;;;6.86;84.03
29941;BME280;16801;53.562;10.038;2023-03-26T03:36:50;100245.81;;;6.97;83.85
29941;BME280;16801;53.562;10.038;2023-03-26T03:40:25;100245.66;;;6.99;84.18
29941;BME280;16801;53.562;10.038;2023-03-26T03:43:47;100244.84;;;7.06;84.02
29941;BME280;16801;53.562;10.038;2023-03-26T03:47:13;100255.63;;;6.87;84.34
29941;BME280;16801;53.562;10.038;2023-03-26T03:50:35;100255.81;;;6.94;84.84
29941;BME280;16801;53.562;10.038;2023-03-26T03:54:11;100258.44;;;6.94;84.46
29941;BME280;16801;53.562;10.038;2023-03-26T03:57:35;100253.56;;;6.65;85.28
29941;BME280;16801;53.562;10.038;2023-03-26T04:01:03;100252.63;;;6.74;84.73
29941;BME280;16801;53.562;10.038;2023-03-26T04:04:42;100259.09;;;6.96;85.28
29941;BME280;16801;53.562;10.038;2023-03-26T04:08:07;100257.91;;;6.82;84.24
29941;BME280;16801;53.562;10.038;2023-03-26T04:11:37;100256.41;;;6.79;84.63
29941;BME280;16801;53.562;10.038;2023-03-26T04:15:26;100252.53;;;6.92;83.60
29941;BME280;16801;53.562;10.038;2023-03-26T04:18:48;100254.38;;;6.99;83.47
29941;BME280;16801;53.562;10.038;2023-03-26T04:22:10;100249.44;;;6.96;82.37
29941;BME280;16801;53.562;10.038;2023-03-26T04:25:44;100248.91;;;6.93;81.77
29941;BME280;16801;53.562;10.038;2023-03-26T04:29:11;100246.09;;;6.86;81.61
29941;BME280;16801;53.562;10.038;2023-03-26T04:32:36;100243.69;;;6.59;81.04
29941;BME280;16801;53.562;10.038;2023-03-26T04:36:01;100243.09;;;6.65;81.10
29941;BME280;16801;53.562;10.038;2023-03-26T04:39:24;100236.81;;;6.58;81.43
29941;BME280;16801;53.562;10.038;2023-03-26T04:43:23;100239.63;;;6.64;80.85
29941;BME280;16801;53.562;10.038;2023-03-26T04:47:02;100241.28;;;6.65;81.70
29941;BME280;16801;53.562;10.038;2023-03-26T04:50:29;100235.25;;;6.73;79.60
29941;BME280;16801;53.562;10.038;2023-03-26T04:53:53;100243.78;;;6.75;79.52
29941;BME280;16801;53.562;10.038;2023-03-26T04:57:42;100242.25;;;6.64;79.80
29941;BME280;16801;53.562;10.038;2023-03-26T05:01:14;100235.75;;;6.76;79.37
29941;BME280;16801;53.562;10.038;2023-03-26T05:04:38;100232.28;;;6.68;79.69
29941;BME280;16801;53.562;10.038;2023-03-26T05:08:00;100237.47;;;6.60;79.26
29941;BME280;16801;53.562;10.038;2023-03-26T05:11:22;100235.00;;;6.50;79.63
29941;BME280;16801;53.562;10.038;2023-03-26T05:14:43;100243.94;;;6.39;80.07
29941;BME280;16801;53.562;10.038;2023-03-26T05:18:10;100248.66;;;6.28;80.61
29941;BME280;16801;53.562;10.038;2023-03-26T05:21:34;100241.94;;;6.33;80.51
29941;BME280;16801;53.562;10.038;2023-03-26T05:24:55;100246.84;;;6.28;81.14
29941;BME280;16801;53.562;10.038;2023-03-26T05:28:18;100250.97;;;6.31;81.09
29941;BME280;16801;53.562;10.038;2023-03-26T05:31:49;100252.00;;;6.46;81.74
29941;BME280;16801;53.562;10.038;2023-03-26T05:35:10;100250.16;;;6.38;81.14
29941;BME280;16801;53.562;10.038;2023-03-26T05:38:31;100251.81;;;6.39;81.00
29941;BME280;16801;53.562;10.038;2023-03-26T05:41:53;100257.94;;;6.48;80.41
29941;BME280;16801;53.562;10.038;2023-03-26T05:45:22;100264.31;;;6.45;81.19
29941;BME280;16801;53.562;10.038;2023-03-26T05:48:43;100259.81;;;6.38;83.07
29941;BME280;16801;53.562;10.038;2023-03-26T05:52:04;100262.66;;;6.44;82.07
29941;BME280;16801;53.562;10.038;2023-03-26T05:55:44;100265.94;;;6.46;80.93
29941;BME280;16801;53.562;10.038;2023-03-26T05:59:44;100271.19;;;6.46;81.05
29941;BME280;16801;53.562;10.038;2023-03-26T06:03:25;100273.28;;;6.43;81.34
29941;BME280;16801;53.562;10.038;2023-03-26T06:07:02;100274.41;;;6.32;82.81
29941;BME280;16801;53.562;10.038;2023-03-26T06:10:23;100267.75;;;6.46;82.12
29941;BME280;16801;53.562;10.038;2023-03-26T06:13:45;100269.78;;;6.34;82.40
29941;BME280;16801;53.562;10.038;2023-03-26T06:17:07;100285.56;;;6.42;81.57
29941;BME280;16801;53.562;10.038;2023-03-26T06:20:50;100268.69;;;6.71;80.50
29941;BME280;16801;53.562;10.038;2023-03-26T06:24:25;100273.97;;;6.87;79.36
29941;BME280;16801;53.562;10.038;2023-03-26T06:27:58;100273.66;;;6.90;79.16
29941;BME280;16801;53.562;10.038;2023-03-26T06:31:40;100275.94;;;6.85;79.29
29941;BME280;16801;53.562;10.038;2023-03-26T06:35:09;100287.25;;;6.85;79.36
29941;BME280;16801;53.562;10.038;2023-03-26T06:38:31;100286.16;;;6.96;78.69
29941;BME280;16801;53.562;10.038;2023-03-26T06:41:55;100291.56;;;6.95;78.21
29941;BME280;16801;53.562;10.038;2023-03-26T06:45:42;100290.06;;;6.92;78.88
29941;BME280;16801;53.562;10.038;2023-03-26T06:49:21;100282.94;;;7.18;78.73
29941;BME280;16801;53.562;10.038;2023-03-26T06:53:10;100285.41;;;7.28;76.28
29941;BME280;16801;53.562;10.038;2023-03-26T06:56:47;100297.41;;;7.31;76.05
29941;BME280;16801;53.562;10.038;2023-03-26T07:00:27;100288.91;;;7.45;74.40
29941;BME280;16801;53.562;10.038;2023-03-26T07:04:06;100290.06;;;7.59;72.56
29941;BME280;16801;53.562;10.038;2023-03-26T07:07:47;100300.59;;;7.67;67.06
29941;BME280;16801;53.562;10.038;2023-03-26T07:11:27;100301.41;;;7.75;66.39
29941;BME280;16801;53.562;10.038;2023-03-26T07:15:10;100299.44;;;7.77;67.96
29941;BME280;16801;53.562;10.038;2023-03-26T07:18:57;100303.19;;;8.15;67.53
29941;BME280;16801;53.562;10.038;2023-03-26T07:22:24;100303.84;;;8.26;70.38
29941;BME280;16801;53.562;10.038;2023-03-26T07:26:13;100302.28;;;8.72;63.83
29941;BME280;16801;53.562;10.038;2023-03-26T07:29:56;100302.56;;;7.89;56.70
29941;BME280;16801;53.562;10.038;2023-03-26T07:33:40;100297.47;;;7.96;57.42
29941;BME280;16801;53.562;10.038;2023-03-26T07:37:46;100301.91;;;7.87;56.76
29941;BME280;16801;53.562;10.038;2023-03-26T07:41:39;100298.63;;;7.77;56.48
29941;BME280;16801;53.562;10.038;2023-03-26T07:45:24;100300.59;;;7.83;57.84
29941;BME280;16801;53.562;10.038;2023-03-26T07:49:20;100294.16;;;7.94;54.77
29941;BME280;16801;53.562;10.038;2023-03-26T07:53:04;100290.41;;;7.88;55.29
29941;BME280;16801;53.562;10.038;2023-03-26T07:56:38;100299.91;;;8.13;55.53
29941;BME280;16801;53.562;10.038;2023-03-26T08:00:31;100300.56;;;8.23;56.36
29941;BME280;16801;53.562;10.038;2023-03-26T08:04:20;100300.59;;;7.99;55.55
29941;BME280;16801;53.562;10.038;2023-03-26T08:08:15;100304.34;;;7.97;56.80
29941;BME280;16801;53.562;10.038;2023-03-26T08:11:57;100305.19;;;7.97;55.42
29941;BME280;16801;53.562;10.038;2023-03-26T08:15:24;100309.63;;;8.05;54.42
29941;BME280;16801;53.562;10.038;2023-03-26T08:18:51;100308.63;;;8.22;54.42
29941;BME280;16801;53.562;10.038;2023-03-26T08:22:17;100301.75;;;8.13;53.63
29941;BME280;16801;53.562;10.038;2023-03-26T08:25:52;100302.06;;;8.02;53.61
29941;BME280;16801;53.562;10.038;2023-03-26T08:29:19;100310.63;;;8.12;54.79
29941;BME280;16801;53.562;10.038;2023-03-26T08:32:52;100302.69;;;8.20;53.53
29941;BME280;16801;53.562;10.038;2023-03-26T08:36:14;100314.53;;;8.24;53.15
29941;BME280;16801;53.562;10.038;2023-03-26T08:39:36;100307.47;;;8.41;53.86
29941;BME280;16801;53.562;10.038;2023-03-26T08:43:11;100307.78;;;8.46;52.21
29941;BME280;16801;53.562;10.038;2023-03-26T08:46:58;100312.72;;;8.49;52.24
29941;BME280;16801;53.562;10.038;2023-03-26T08:50:59;100313.97;;;8.61;52.46
29941;BME280;16801;53.562;10.038;2023-03-26T08:54:46;100307.34;;;8.81;51.89
29941;BME280;16801;53.562;10.038;2023-03-26T08:58:46;100309.03;;;8.74;51.55
29941;BME280;16801;53.562;10.038;2023-03-26T09:06:39;100306.41;;;9.05;51.86
29941;BME280;16801;53.562;10.038;2023-03-26T09:18:28;100307.59;;;9.03;48.75
29941;BME280;16801;53.562;10.038;2023-03-26T09:22:24;100307.31;;;9.51;47.05
29941;BME280;16801;53.562;10.038;2023-03-26T09:26:16;100305.97;;;9.55;46.49
29941;BME280;16801;53.562;10.038;2023-03-26T09:33:52;100300.63;;;10.47;45.50
29941;BME280;16801;53.562;10.038;2023-03-26T09:37:17;100302.44;;;11.05;55.79
29941;BME280;16801;53.562;10.038;2023-03-26T09:40:52;100311.88;;;11.50;52.49
29941;BME280;16801;53.562;10.038;2023-03-26T09:44:41;100309.66;;;11.54;54.56
29941;BME280;16801;53.562;10.038;2023-03-26T09:52:15;100315.63;;;11.41;44.23
29941;BME280;16801;53.562;10.038;2023-03-26T09:56:15;100320.59;;;10.04;44.77
29941;BME280;16801;53.562;10.038;2023-03-26T09:59:58;100320.50;;;9.74;45.54
29941;BME280;16801;53.562;10.038;2023-03-26T10:03:52;100319.50;;;10.21;44.67
29941;BME280;16801;53.562;10.038;2023-03-26T10:07:32;100333.50;;;9.76;46.54
29941;BME280;16801;53.562;10.038;2023-03-26T10:11:01;100317.53;;;10.67;44.05
29941;BME280;16801;53.562;10.038;2023-03-26T10:14:27;100318.91;;;10.92;43.80
29941;BME280;16801;53.562;10.038;2023-03-26T10:18:03;100316.75;;;11.32;41.53
29941;BME280;16801;53.562;10.038;2023-03-26T10:21:38;100323.09;;;11.38;43.11
29941;BME280;16801;53.562;10.038;2023-03-26T10:25:23;100322.97;;;11.82;56.88
29941;BME280;16801;53.562;10.038;2023-03-26T10:32:35;100311.59;;;11.81;42.76
29941;BME280;16801;53.562;10.038;2023-03-26T10:36:17;100310.38;;;12.05;43.47
29941;BME280;16801;53.562;10.038;2023-03-26T10:40:00;100309.13;;;13.32;39.17
29941;BME280;16801;53.562;10.038;2023-03-26T10:47:40;100325.47;;;12.67;39.64
29941;BME280;16801;53.562;10.038;2023-03-26T10:51:21;100322.72;;;11.77;38.35
29941;BME280;16801;53.562;10.038;2023-03-26T10:54:52;100324.19;;;12.28;40.50
29941;BME280;16801;53.562;10.038;2023-03-26T10:58:19;100319.72;;;13.39;37.56
29941;BME280;16801;53.562;10.038;2023-03-26T11:01:47;100314.66;;;18.91;28.04
29941;BME280;16801;53.562;10.038;2023-03-26T11:05:25;100305.00;;;21.73;20.62
29941;BME280;16801;53.562;10.038;2023-03-26T11:08:52;100305.56;;;20.61;22.00
29941;BME280;16801;53.562;10.038;2023-03-26T11:12:21;100302.13;;;18.68;23.53
29941;BME280;16801;53.562;10.038;2023-03-26T11:15:49;100301.75;;;20.57;21.72
29941;BME280;16801;53.562;10.038;2023-03-26T11:19:16;100298.41;;;22.65;19.34
29941;BME280;16801;53.562;10.038;2023-03-26T11:22:51;100294.03;;;24.99;18.76
29941;BME280;16801;53.562;10.038;2023-03-26T11:26:17;100300.75;;;20.41;22.18
29941;BME280;16801;53.562;10.038;2023-03-26T11:29:48;100305.44;;;18.99;25.90
29941;BME280;16801;53.562;10.038;2023-03-26T11:33:16;100306.47;;;19.38;23.24
29941;BME280;16801;53.562;10.038;2023-03-26T11:36:42;100305.25;;;18.54;25.43
29941;BME280;16801;53.562;10.038;2023-03-26T11:40:12;100300.50;;;23.00;19.84
29941;BME280;16801;53.562;10.038;2023-03-26T11:43:35;100290.06;;;25.36;17.07
29941;BME280;16801;53.562;10.038;2023-03-26T11:47:01;100282.84;;;25.60;16.15
29941;BME280;16801;53.562;10.038;2023-03-26T11:50:25;100295.22;;;26.05;15.72
29941;BME280;16801;53.562;10.038;2023-03-26T11:53:47;100289.28;;;26.61;16.32
29941;BME280;16801;53.562;10.038;2023-03-26T11:57:12;100284.09;;;28.01;14.89
29941;BME280;16801;53.562;10.038;2023-03-26T12:00:37;100282.72;;;26.43;15.08
29941;BME280;16801;53.562;10.038;2023-03-26T12:04:03;100279.25;;;27.09;13.47
29941;BME280;16801;53.562;10.038;2023-03-26T12:07:29;100281.06;;;29.40;13.23
29941;BME280;16801;53.562;10.038;2023-03-26T12:10:59;100266.56;;;29.44;13.28
29941;BME280;16801;53.562;10.038;2023-03-26T12:14:24;100265.34;;;28.73;12.67
29941;BME280;16801;53.562;10.038;2023-03-26T12:17:49;100270.91;;;28.41;13.59
29941;BME280;16801;53.562;10.038;2023-03-26T12:21:13;100274.50;;;28.36;13.58
29941;BME280;16801;53.562;10.038;2023-03-26T12:24:34;100268.16;;;27.43;13.65
29941;BME280;16801;53.562;10.038;2023-03-26T12:27:58;100266.41;;;26.72;14.62
29941;BME280;16801;53.562;10.038;2023-03-26T12:31:21;100267.56;;;28.30;14.06
29941;BME280;16801;53.562;10.038;2023-03-26T12:34:46;100261.44;;;26.79;15.01
29941;BME280;16801;53.562;10.038;2023-03-26T12:38:15;100261.22;;;28.21;14.16
29941;BME280;16801;53.562;10.038;2023-03-26T12:41:39;100249.63;;;27.13;13.79
29941;BME280;16801;53.562;10.038;2023-03-26T12:45:00;100260.16;;;28.03;13.50
29941;BME280;16801;53.562;10.038;2023-03-26T12:48:23;100266.63;;;26.52;15.19
29941;BME280;16801;53.562;10.038;2023-03-26T12:51:50;100270.44;;;27.17;14.22
29941;BME280;16801;53.562;10.038;2023-03-26T12:55:26;100267.97;;;26.54;15.15
29941;BME280;16801;53.562;10.038;2023-03-26T12:59:08;100275.72;;;27.09;14.99
29941;BME280;16801;53.562;10.038;2023-03-26T13:02:55;100275.84;;;27.17;14.60
29941;BME280;16801;53.562;10.038;2023-03-26T13:06:29;100262.31;;;26.51;14.27
29941;BME280;16801;53.562;10.038;2023-03-26T13:10:10;100256.38;;;27.34;14.51
29941;BME280;16801;53.562;10.038;2023-03-26T13:13:49;100264.44;;;27.39;14.04
29941;BME280;16801;53.562;10.038;2023-03-26T13:17:21;100261.22;;;27.18;13.36
29941;BME280;16801;53.562;10.038;2023-03-26T13:20:48;100263.56;;;27.44;15.03
29941;BME280;16801;53.562;10.038;2023-03-26T13:24:18;100266.63;;;26.52;16.77
29941;BME280;16801;53.562;10.038;2023-03-26T13:27:52;100253.66;;;28.18;14.32
29941;BME280;16801;53.562;10.038;2023-03-26T13:31:18;100255.47;;;27.76;16.02
29941;BME280;16801;53.562;10.038;2023-03-26T13:34:53;100263.69;;;25.96;18.04
29941;BME280;16801;53.562;10.038;2023-03-26T13:38:22;100258.66;;;23.65;18.86
29941;BME280;16801;53.562;10.038;2023-03-26T13:41:54;100260.28;;;25.80;18.32
29941;BME280;16801;53.562;10.038;2023-03-26T13:45:37;100248.47;;;27.38;15.10
29941;BME280;16801;53.562;10.038;2023-03-26T13:49:04;100243.72;;;27.11;14.90
29941;BME280;16801;53.562;10.038;2023-03-26T13:52:34;100242.19;;;24.97;15.83
29941;BME280;16801;53.562;10.038;2023-03-26T13:55:58;100252.41;;;22.14;20.94
29941;BME280;16801;53.562;10.038;2023-03-26T13:59:25;100251.56;;;23.34;19.89
29941;BME280;16801;53.562;10.038;2023-03-26T14:02:54;100256.50;;;24.98;17.52
29941;BME280;16801;53.562;10.038;2023-03-26T14:06:28;100254.91;;;24.86;16.21
29941;BME280;16801;53.562;10.038;2023-03-26T14:09:53;100258.66;;;22.72;20.48
29941;BME280;16801;53.562;10.038;2023-03-26T14:13:20;100261.44;;;22.40;19.92
29941;BME280;16801;53.562;10.038;2023-03-26T14:16:45;100263.16;;;22.14;19.15
29941;BME280;16801;53.562;10.038;2023-03-26T14:20:49;100267.22;;;23.27;18.63
29941;BME280;16801;53.562;10.038;2023-03-26T14:24:33;100266.53;;;20.32;21.76
29941;BME280;16801;53.562;10.038;2023-03-26T14:28:17;100274.91;;;17.78;26.09
29941;BME280;16801;53.562;10.038;2023-03-26T14:31:44;100269.22;;;19.20;24.84
29941;BME280;16801;53.562;10.038;2023-03-26T14:35:22;100268.97;;;18.58;25.04
29941;BME280;16801;53.562;10.038;2023-03-26T14:39:28;100272.81;;;17.38;26.66
29941;BME280;16801;53.562;10.038;2023-03-26T14:42:53;100275.06;;;18.30;25.51
29941;BME280;16801;53.562;10.038;2023-03-26T14:46:39;100279.41;;;18.94;25.14
29941;BME280;16801;53.562;10.038;2023-03-26T14:50:32;100268.41;;;16.23;27.37
29941;BME280;16801;53.562;10.038;2023-03-26T14:53:59;100271.25;;;15.02;30.19
29941;BME280;16801;53.562;10.038;2023-03-26T15:01:20;100270.91;;;15.30;30.53
29941;BME280;16801;53.562;10.038;2023-03-26T15:09:01;100274.00;;;15.20;30.09
29941;BME280;16801;53.562;10.038;2023-03-26T15:12:43;100263.25;;;14.37;30.71
29941;BME280;16801;53.562;10.038;2023-03-26T15:16:33;100281.00;;;14.50;31.23
29941;BME280;16801;53.562;10.038;2023-03-26T15:28:25;100281.56;;;14.72;35.05
29941;BME280;16801;53.562;10.038;2023-03-26T15:32:09;100277.97;;;15.11;33.81
29941;BME280;16801;53.562;10.038;2023-03-26T15:35:51;100276.22;;;15.30;31.21
29941;BME280;16801;53.562;10.038;2023-03-26T15:43:14;100286.88;;;14.72;32.37
29941;BME280;16801;53.562;10.038;2023-03-26T15:46:53;100287.59;;;14.41;32.78
29941;BME280;16801;53.562;10.038;2023-03-26T15:50:28;100292.03;;;14.60;31.12
29941;BME280;16801;53.562;10.038;2023-03-26T15:53:54;100291.88;;;13.96;32.65
29941;BME280;16801;53.562;10.038;2023-03-26T15:57:24;100295.09;;;13.52;33.02
29941;BME280;16801;53.562;10.038;2023-03-26T16:00:53;100288.78;;;14.12;32.78
29941;BME280;16801;53.562;10.038;2023-03-26T16:04:23;100294.91;;;14.39;31.03
29941;BME280;16801;53.562;10.038;2023-03-26T16:07:54;100297.53;;;14.59;30.93
29941;BME280;16801;53.562;10.038;2023-03-26T16:11:47;100306.28;;;14.73;30.59
29941;BME280;16801;53.562;10.038;2023-03-26T16:18:55;100304.25;;;13.56;32.31
29941;BME280;16801;53.562;10.038;2023-03-26T16:22:39;100304.31;;;13.95;33.03
29941;BME280;16801;53.562;10.038;2023-03-26T16:26:15;100310.84;;;14.19;32.53
29941;BME280;16801;53.562;10.038;2023-03-26T16:30:24;100313.88;;;13.70;33.26
29941;BME280;16801;53.562;10.038;2023-03-26T16:33:48;100311.84;;;14.31;35.60
29941;BME280;16801;53.562;10.038;2023-03-26T16:37:36;100320.81;;;13.84;33.31
29941;BME280;16801;53.562;10.038;2023-03-26T16:41:01;100330.81;;;13.69;33.45
29941;BME280;16801;53.562;10.038;2023-03-26T16:44:27;100325.34;;;13.16;33.88
29941;BME280;16801;53.562;10.038;2023-03-26T16:47:59;100330.94;;;13.41;33.94
29941;BME280;16801;53.562;10.038;2023-03-26T16:51:38;100320.94;;;13.37;33.89
29941;BME280;16801;53.562;10.038;2023-03-26T16:55:13;100330.19;;;13.13;34.83
29941;BME280;16801;53.562;10.038;2023-03-26T16:58:45;100329.47;;;12.91;35.08
29941;BME280;16801;53.562;10.038;2023-03-26T17:02:20;100350.47;;;12.86;35.19
29941;BME280;16801;53.562;10.038;2023-03-26T17:05:57;100349.72;;;12.71;36.39
29941;BME280;16801;53.562;10.038;2023-03-26T17:09:30;100355.28;;;12.48;36.02
29941;BME280;16801;53.562;10.038;2023-03-26T17:13:00;100351.47;;;12.29;37.32
29941;BME280;16801;53.562;10.038;2023-03-26T17:16:25;100361.06;;;12.30;37.77
29941;BME280;16801;53.562;10.038;2023-03-26T17:19:51;100360.13;;;12.16;37.97
29941;BME280;16801;53.562;10.038;2023-03-26T17:23:26;100364.38;;;11.89;39.46
29941;BME280;16801;53.562;10.038;2023-03-26T17:26:59;100365.00;;;11.91;39.61
29941;BME280;16801;53.562;10.038;2023-03-26T17:30:49;100378.34;;;11.83;39.89
29941;BME280;16801;53.562;10.038;2023-03-26T17:38:54;100387.25;;;11.46;41.88
29941;BME280;16801;53.562;10.038;2023-03-26T17:42:17;100395.66;;;11.20;43.31
29941;BME280;16801;53.562;10.038;2023-03-26T17:45:40;100407.66;;;11.38;42.77
29941;BME280;16801;53.562;10.038;2023-03-26T17:49:12;100405.84;;;11.38;42.51
29941;BME280;16801;53.562;10.038;2023-03-26T17:52:43;100416.44;;;11.23;43.08
29941;BME280;16801;53.562;10.038;2023-03-26T17:56:13;100420.94;;;11.59;48.40
29941;BME280;16801;53.562;10.038;2023-03-26T17:59:36;100423.31;;;12.05;48.41
29941;BME280;16801;53.562;10.038;2023-03-26T18:02:59;100427.03;;;12.10;50.31
29941;BME280;16801;53.562;10.038;2023-03-26T18:06:48;100422.00;;;11.94;48.47
29941;BME280;16801;53.562;10.038;2023-03-26T18:10:26;100433.28;;;11.22;44.22
29941;BME280;16801;53.562;10.038;2023-03-26T18:14:13;100431.34;;;10.87;44.82
29941;BME280;16801;53.562;10.038;2023-03-26T18:17:42;100446.16;;;10.58;46.03
29941;BME280;16801;53.562;10.038;2023-03-26T18:21:04;100453.53;;;10.40;46.49
29941;BME280;16801;53.562;10.038;2023-03-26T18:24:29;100460.44;;;10.41;46.67
29941;BME280;16801;53.562;10.038;2023-03-26T18:27:51;100462.09;;;10.19;47.40
29941;BME280;16801;53.562;10.038;2023-03-26T18:31:17;100467.72;;;9.85;48.10
29941;BME280;16801;53.562;10.038;2023-03-26T18:34:45;100475.94;;;9.90;48.07
29941;BME280;16801;53.562;10.038;2023-03-26T18:38:12;100484.88;;;9.81;48.10
29941;BME280;16801;53.562;10.038;2023-03-26T18:41:36;100483.50;;;9.54;48.80
29941;BME280;16801;53.562;10.038;2023-03-26T18:45:02;100486.91;;;9.71;48.83
29941;BME280;16801;53.562;10.038;2023-03-26T18:48:26;100494.25;;;9.45;48.97
29941;BME280;16801;53.562;10.038;2023-03-26T18:51:48;100495.06;;;9.45;48.97
29941;BME280;16801;53.562;10.038;2023-03-26T18:55:10;100494.59;;;9.42;48.34
29941;BME280;16801;53.562;10.038;2023-03-26T18:58:35;100498.47;;;9.54;47.23
29941;BME280;16801;53.562;10.038;2023-03-26T19:01:57;100503.59;;;9.55;53.70
29941;BME280;16801;53.562;10.038;2023-03-26T19:05:20;100514.31;;;9.93;50.07
29941;BME280;16801;53.562;10.038;2023-03-26T19:08:42;100515.31;;;9.92;49.03
29941;BME280;16801;53.562;10.038;2023-03-26T19:12:06;100528.72;;;9.74;46.90
29941;BME280;16801;53.562;10.038;2023-03-26T19:15:30;100525.72;;;9.85;47.54